createdAt,value
2023-04-12T00:00:30.100Z,10.60
2023-04-12T00:02:01.941Z,10.60
2023-04-12T00:03:35.218Z,10.60
2023-04-12T00:05:10.266Z,10.60
2023-04-12T00:06:48.574Z,10.50
2023-04-12T00:08:24.509Z,10.50
2023-04-12T00:09:57.302Z,10.50
2023-04-12T00:11:31.470Z,10.50
2023-04-12T00:13:04.308Z,10.50
2023-04-12T00:14:37.022Z,10.50
2023-04-12T00:16:10.475Z,10.40
2023-04-12T00:17:42.367Z,10.40
2023-04-12T00:19:17.107Z,10.50
2023-04-12T00:20:49.820Z,10.40
2023-04-12T00:22:23.911Z,10.40
2023-04-12T00:23:57.077Z,10.40
2023-04-12T00:25:29.990Z,10.40
2023-04-12T00:27:02.110Z,10.40
2023-04-12T00:28:34.915Z,10.40
2023-04-12T00:30:09.273Z,10.40
2023-04-12T00:31:42.092Z,10.40
2023-04-12T00:33:14.815Z,10.30
2023-04-12T00:34:47.562Z,10.40
2023-04-12T00:36:20.463Z,10.40
2023-04-12T00:37:54.703Z,10.40
2023-04-12T00:39:27.446Z,10.30
2023-04-12T00:40:59.898Z,10.30
2023-04-12T00:42:32.622Z,10.30
2023-04-12T00:44:05.635Z,10.30
2023-04-12T00:45:38.430Z,10.30
2023-04-12T00:47:11.619Z,10.30
2023-04-12T00:48:44.833Z,10.20
2023-04-12T00:50:17.539Z,10.20
2023-04-12T00:51:49.328Z,10.20
2023-04-12T00:53:23.558Z,10.20
2023-04-12T00:54:56.278Z,10.20
2023-04-12T00:56:29.811Z,10.20
2023-04-12T00:58:01.544Z,10.10
2023-04-12T00:59:34.218Z,10.10
2023-04-12T01:01:07.465Z,10.10
2023-04-12T01:02:41.313Z,10.10
2023-04-12T01:04:14.232Z,10.10
2023-04-12T01:05:55.669Z,10.00
2023-04-12T01:07:46.592Z,10.00
2023-04-12T01:09:30.217Z,10.00
2023-04-12T01:11:12.762Z,10.00
2023-04-12T01:12:52.502Z,10.00
2023-04-12T01:14:36.288Z,10.00
2023-04-12T01:16:19.306Z,10.00
2023-04-12T01:17:58.630Z,10.00
2023-04-12T01:19:53.626Z,9.90
2023-04-12T01:21:36.744Z,9.90
2023-04-12T01:23:39.965Z,9.90
2023-04-12T01:25:32.453Z,9.90
2023-04-12T01:27:11.199Z,9.80
2023-04-12T01:28:46.189Z,9.80
2023-04-12T01:30:21.411Z,9.80
2023-04-12T01:31:58.259Z,9.80
2023-04-12T01:33:32.170Z,9.80
2023-04-12T01:35:07.405Z,9.80
2023-04-12T01:36:41.941Z,9.80
2023-04-12T01:38:15.191Z,9.70
2023-04-12T01:39:47.975Z,9.70
2023-04-12T01:41:21.564Z,9.60
2023-04-12T01:43:05.290Z,9.60
2023-04-12T01:44:39.298Z,9.60
2023-04-12T01:46:13.600Z,9.60
2023-04-12T01:47:46.517Z,9.60
2023-04-12T01:49:20.587Z,9.60
2023-04-12T01:51:04.848Z,9.60
2023-04-12T01:52:45.060Z,9.60
2023-04-12T01:54:22.897Z,9.50
2023-04-12T01:56:00.394Z,9.50
2023-04-12T01:57:33.926Z,9.50
2023-04-12T01:59:06.218Z,9.50
2023-04-12T02:00:42.501Z,9.50
2023-04-12T02:02:15.857Z,9.50
2023-04-12T02:03:50.853Z,9.50
2023-04-12T02:05:23.488Z,9.50
2023-04-12T02:06:56.921Z,9.50
2023-04-12T02:08:29.930Z,9.50
2023-04-12T02:10:02.655Z,9.40
2023-04-12T02:11:35.943Z,9.40
2023-04-12T02:13:08.641Z,9.30
2023-04-12T02:14:41.361Z,9.30
2023-04-12T02:16:14.550Z,9.30
2023-04-12T02:17:47.347Z,9.20
2023-04-12T02:19:20.360Z,9.20
2023-04-12T02:20:53.068Z,9.10
2023-04-12T02:22:25.903Z,9.10
2023-04-12T02:23:58.801Z,9.00
2023-04-12T02:25:33.297Z,9.00
2023-04-12T02:27:06.263Z,8.90
2023-04-12T02:28:38.626Z,8.90
2023-04-12T02:30:12.277Z,8.80
2023-04-12T02:31:46.410Z,8.80
2023-04-12T02:33:21.519Z,8.80
2023-04-12T02:34:54.337Z,8.80
2023-04-12T02:36:27.059Z,8.80
2023-04-12T02:37:59.798Z,8.70
2023-04-12T02:39:34.377Z,8.70
2023-04-12T02:41:07.759Z,8.70
2023-04-12T02:42:40.632Z,8.60
2023-04-12T02:44:13.343Z,8.60
2023-04-12T02:45:46.086Z,8.60
2023-04-12T02:47:19.186Z,8.60
2023-04-12T02:48:51.991Z,8.50
2023-04-12T02:50:23.812Z,8.50
2023-04-12T02:51:56.509Z,8.50
2023-04-12T02:53:29.190Z,8.50
2023-04-12T02:55:01.990Z,8.50
2023-04-12T02:56:36.946Z,8.50
2023-04-12T02:58:09.667Z,8.50
2023-04-12T02:59:41.870Z,8.40
2023-04-12T03:01:14.717Z,8.40
2023-04-12T03:02:51.327Z,8.40
2023-04-12T03:04:30.569Z,8.40
2023-04-12T03:06:03.589Z,8.40
2023-04-12T03:07:36.121Z,8.40
2023-04-12T03:09:08.852Z,8.30
2023-04-12T03:10:41.555Z,8.30
2023-04-12T03:12:14.027Z,8.40
2023-04-12T03:13:46.712Z,8.30
2023-04-12T03:15:20.141Z,8.30
2023-04-12T03:16:53.498Z,8.30
2023-04-12T03:18:27.677Z,8.30
2023-04-12T03:20:06.229Z,8.30
2023-04-12T03:21:38.935Z,8.30
2023-04-12T03:23:11.639Z,8.30
2023-04-12T03:24:44.703Z,8.20
2023-04-12T03:26:20.282Z,8.20
2023-04-12T03:27:53.001Z,8.20
2023-04-12T03:29:25.725Z,8.20
2023-04-12T03:30:57.606Z,8.10
2023-04-12T03:32:30.406Z,8.10
2023-04-12T03:34:04.591Z,8.10
2023-04-12T03:35:36.434Z,8.10
2023-04-12T03:37:09.240Z,8.10
2023-04-12T03:38:41.941Z,8.10
2023-04-12T03:40:14.825Z,8.00
2023-04-12T03:41:47.863Z,8.00
2023-04-12T03:43:19.593Z,8.00
2023-04-12T03:44:52.771Z,8.00
2023-04-12T03:46:24.649Z,8.00
2023-04-12T03:47:57.443Z,8.00
2023-04-12T03:49:32.654Z,8.00
2023-04-12T03:51:07.722Z,8.10
2023-04-12T03:52:40.720Z,8.00
2023-04-12T03:54:13.317Z,8.10
2023-04-12T03:55:46.031Z,8.10
2023-04-12T03:57:18.747Z,8.10
2023-04-12T03:58:50.627Z,8.10
2023-04-12T04:00:23.339Z,8.10
2023-04-12T04:01:56.266Z,8.10
2023-04-12T04:03:29.569Z,8.10
2023-04-12T04:05:03.935Z,8.10
2023-04-12T04:06:36.780Z,8.10
2023-04-12T04:08:09.982Z,8.10
2023-04-12T04:09:42.765Z,8.20
2023-04-12T04:11:16.247Z,8.10
2023-04-12T04:12:48.938Z,8.20
2023-04-12T04:14:21.645Z,8.10
2023-04-12T04:15:59.509Z,8.20
2023-04-12T04:17:32.280Z,8.20
2023-04-12T04:19:04.089Z,8.20
2023-04-12T04:20:38.222Z,8.20
2023-04-12T04:22:12.349Z,8.20
2023-04-12T04:23:45.343Z,8.20
2023-04-12T04:25:18.066Z,8.20
2023-04-12T04:26:54.441Z,8.20
2023-04-12T04:28:26.185Z,8.20
2023-04-12T04:29:59.571Z,8.30
2023-04-12T04:31:34.526Z,8.30
2023-04-12T04:33:07.685Z,8.30
2023-04-12T04:34:40.403Z,8.30
2023-04-12T04:36:15.690Z,8.30
2023-04-12T04:37:48.391Z,8.30
2023-04-12T04:39:21.501Z,8.30
2023-04-12T04:40:53.299Z,8.40
2023-04-12T04:42:26.329Z,8.30
2023-04-12T04:44:00.478Z,8.30
2023-04-12T04:45:33.704Z,8.40
2023-04-12T04:47:08.516Z,8.40
2023-04-12T04:48:41.704Z,8.40
2023-04-12T04:50:14.452Z,8.40
2023-04-12T04:51:48.514Z,8.40
2023-04-12T04:53:23.168Z,8.40
2023-04-12T04:54:57.676Z,8.40
2023-04-12T04:56:30.916Z,8.40
2023-04-12T04:58:03.627Z,8.30
2023-04-12T04:59:36.613Z,8.40
2023-04-12T05:01:10.720Z,8.30
2023-04-12T05:02:45.647Z,8.40
2023-04-12T05:04:18.689Z,8.40
2023-04-12T05:05:51.767Z,8.40
2023-04-12T05:07:26.100Z,8.40
2023-04-12T05:08:59.096Z,8.40
2023-04-12T05:10:32.075Z,8.40
2023-04-12T05:12:05.105Z,8.40
2023-04-12T05:13:37.894Z,8.40
2023-04-12T05:15:12.343Z,8.40
2023-04-12T05:16:45.688Z,8.40
2023-04-12T05:18:18.799Z,8.40
2023-04-12T05:19:51.501Z,8.40
2023-04-12T05:21:24.560Z,8.40
2023-04-12T05:22:58.731Z,8.40
2023-04-12T05:24:31.440Z,8.40
2023-04-12T05:26:04.319Z,8.40
2023-04-12T05:27:37.023Z,8.40
2023-04-12T05:29:09.708Z,8.40
2023-04-12T05:30:42.411Z,8.40
2023-04-12T05:32:15.090Z,8.50
2023-04-12T05:33:49.273Z,8.50
2023-04-12T05:35:21.984Z,8.50
2023-04-12T05:36:54.868Z,8.50
2023-04-12T05:38:28.946Z,8.50
2023-04-12T05:40:01.683Z,8.50
2023-04-12T05:41:34.393Z,8.50
2023-04-12T05:43:07.073Z,8.50
2023-04-12T05:44:40.402Z,8.50
2023-04-12T05:46:13.329Z,8.50
2023-04-12T05:47:46.306Z,8.50
2023-04-12T05:49:19.027Z,8.50
2023-04-12T05:50:52.304Z,8.50
2023-04-12T05:52:25.072Z,8.50
2023-04-12T05:53:59.094Z,8.50
2023-04-12T05:55:31.996Z,8.50
2023-04-12T05:57:04.789Z,8.50
2023-04-12T05:58:37.485Z,8.50
2023-04-12T06:00:13.429Z,8.40
2023-04-12T06:01:46.750Z,8.50
2023-04-12T06:03:19.675Z,8.50
2023-04-12T06:04:53.639Z,8.50
2023-04-12T06:06:30.570Z,8.40
2023-04-12T06:08:05.199Z,8.40
2023-04-12T06:09:40.314Z,8.40
2023-04-12T06:11:13.017Z,8.50
2023-04-12T06:12:45.896Z,8.50
2023-04-12T06:14:18.580Z,8.40
2023-04-12T06:15:51.313Z,8.40
2023-04-12T06:17:24.142Z,8.40
2023-04-12T06:18:57.041Z,8.50
2023-04-12T06:20:29.938Z,8.50
2023-04-12T06:22:02.646Z,8.50
2023-04-12T06:23:35.603Z,8.40
2023-04-12T06:25:10.212Z,8.50
2023-04-12T06:26:46.700Z,8.50
2023-04-12T06:28:19.426Z,8.50
2023-04-12T06:29:52.138Z,8.40
2023-04-12T06:31:24.847Z,8.40
2023-04-12T06:32:57.758Z,8.40
2023-04-12T06:34:31.376Z,8.50
2023-04-12T06:36:05.617Z,8.50
2023-04-12T06:37:38.583Z,8.50
2023-04-12T06:39:12.065Z,8.50
2023-04-12T06:40:46.374Z,8.50
2023-04-12T06:42:19.384Z,8.50
2023-04-12T06:43:52.072Z,8.50
2023-04-12T06:45:24.761Z,8.50
2023-04-12T06:46:57.499Z,8.50
2023-04-12T06:48:30.639Z,8.60
2023-04-12T06:50:03.739Z,8.50
2023-04-12T06:51:36.571Z,8.50
2023-04-12T06:53:09.269Z,8.50
2023-04-12T06:54:42.343Z,8.50
2023-04-12T06:56:18.425Z,8.50
2023-04-12T06:57:52.107Z,8.50
2023-04-12T06:59:24.956Z,8.40
2023-04-12T07:01:05.736Z,8.50
2023-04-12T07:02:38.897Z,8.50
2023-04-12T07:04:12.694Z,8.60
2023-04-12T07:05:45.589Z,8.60
2023-04-12T07:07:18.385Z,8.60
2023-04-12T07:08:51.097Z,8.50
2023-04-12T07:10:23.827Z,8.60
2023-04-12T07:11:57.848Z,8.60
2023-04-12T07:13:30.715Z,8.60
2023-04-12T07:15:03.443Z,8.60
2023-04-12T07:16:36.162Z,8.60
2023-04-12T07:18:09.289Z,8.60
2023-04-12T07:19:43.874Z,8.60
2023-04-12T07:21:17.926Z,8.60
2023-04-12T07:22:50.814Z,8.60
2023-04-12T07:24:23.542Z,8.60
2023-04-12T07:26:00.750Z,8.60
2023-04-12T07:27:34.763Z,8.60
2023-04-12T07:29:07.765Z,8.70
2023-04-12T07:30:40.746Z,8.70
2023-04-12T07:32:13.474Z,8.70
2023-04-12T07:33:46.361Z,8.60
2023-04-12T07:35:20.520Z,8.70
2023-04-12T07:36:53.208Z,8.70
2023-04-12T07:38:25.992Z,8.70
2023-04-12T07:39:58.720Z,8.70
2023-04-12T07:41:31.457Z,8.70
2023-04-12T07:43:05.506Z,8.80
2023-04-12T07:44:39.028Z,8.90
2023-04-12T07:46:11.897Z,8.80
2023-04-12T07:47:44.749Z,8.90
2023-04-12T07:49:17.491Z,8.90
2023-04-12T07:50:50.465Z,8.90
2023-04-12T07:52:23.199Z,8.90
2023-04-12T07:53:56.014Z,9.00
2023-04-12T07:55:28.926Z,9.00
2023-04-12T07:57:03.526Z,9.00
2023-04-12T07:58:37.657Z,9.00
2023-04-12T08:00:11.616Z,9.00
2023-04-12T08:01:44.331Z,9.00
2023-04-12T08:03:18.596Z,9.00
2023-04-12T08:04:51.417Z,9.00
2023-04-12T08:06:24.098Z,9.00
2023-04-12T08:07:56.820Z,9.00
2023-04-12T08:09:30.084Z,9.00
2023-04-12T08:11:02.891Z,9.10
2023-04-12T08:12:35.809Z,9.10
2023-04-12T08:14:10.394Z,9.10
2023-04-12T08:15:43.583Z,9.10
2023-04-12T08:17:16.713Z,9.20
2023-04-12T08:18:49.401Z,9.20
2023-04-12T08:20:22.161Z,9.20
2023-04-12T08:21:55.219Z,9.20
2023-04-12T08:23:28.040Z,9.20
2023-04-12T08:25:00.834Z,9.10
2023-04-12T08:26:33.574Z,9.10
2023-04-12T08:28:08.160Z,9.20
2023-04-12T08:29:42.278Z,9.20
2023-04-12T08:31:15.104Z,9.20
2023-04-12T08:32:47.917Z,9.20
2023-04-12T08:34:22.313Z,9.30
2023-04-12T08:35:55.644Z,9.30
2023-04-12T08:37:28.347Z,9.40
2023-04-12T08:39:01.316Z,9.30
2023-04-12T08:40:34.062Z,9.40
2023-04-12T08:42:07.839Z,9.40
2023-04-12T08:43:44.447Z,9.40
2023-04-12T08:45:18.491Z,9.40
2023-04-12T08:46:53.413Z,9.50
2023-04-12T08:48:28.120Z,9.50
2023-04-12T08:50:02.024Z,9.50
2023-04-12T08:51:36.170Z,9.50
2023-04-12T08:53:11.695Z,9.50
2023-04-12T08:54:44.400Z,9.50
2023-04-12T08:56:17.544Z,9.50
2023-04-12T08:57:51.806Z,9.60
2023-04-12T08:59:25.223Z,9.60
2023-04-12T09:01:00.152Z,9.60
2023-04-12T09:02:32.984Z,9.60
2023-04-12T09:04:07.989Z,9.60
2023-04-12T09:05:40.941Z,9.60
2023-04-12T09:07:13.727Z,9.60
2023-04-12T09:08:53.934Z,9.60
2023-04-12T09:10:33.458Z,9.70
2023-04-12T09:12:08.418Z,9.70
2023-04-12T09:13:41.372Z,9.70
2023-04-12T09:15:17.675Z,9.70
2023-04-12T09:16:52.089Z,9.80
2023-04-12T09:18:24.984Z,9.80
2023-04-12T09:19:57.720Z,9.80
2023-04-12T09:21:31.544Z,9.80
2023-04-12T09:23:18.427Z,9.90
2023-04-12T09:24:53.449Z,9.90
2023-04-12T09:26:30.196Z,9.90
2023-04-12T09:28:02.916Z,9.90
2023-04-12T09:29:35.733Z,9.90
2023-04-12T09:31:17.160Z,9.90
2023-04-12T09:32:53.329Z,10.00
2023-04-12T09:34:27.759Z,10.00
2023-04-12T09:36:02.574Z,10.00
2023-04-12T09:37:35.317Z,10.00
2023-04-12T09:39:09.063Z,10.00
2023-04-12T09:40:41.863Z,10.10
2023-04-12T09:42:32.527Z,10.00
2023-04-12T09:44:06.975Z,10.10
2023-04-12T09:45:39.782Z,10.20
2023-04-12T09:47:12.505Z,10.20
2023-04-12T09:48:52.696Z,10.20
2023-04-12T09:50:27.256Z,10.10
2023-04-12T09:51:59.968Z,10.20
2023-04-12T09:53:34.706Z,10.20
2023-04-12T09:55:10.809Z,10.20
2023-04-12T09:56:44.286Z,10.20
2023-04-12T09:58:20.417Z,10.30
2023-04-12T09:59:55.445Z,10.30
2023-04-12T10:01:28.512Z,10.30
2023-04-12T10:03:02.695Z,10.20
2023-04-12T10:04:40.337Z,10.20
2023-04-12T10:06:13.796Z,10.20
2023-04-12T10:07:47.263Z,10.20
2023-04-12T10:09:20.113Z,10.30
2023-04-12T10:10:54.727Z,10.20
2023-04-12T10:12:28.387Z,10.30
2023-04-12T10:14:03.277Z,10.30
2023-04-12T10:15:37.079Z,10.30
2023-04-12T10:17:13.155Z,10.30
2023-04-12T10:18:47.430Z,10.30
2023-04-12T10:20:25.516Z,10.30
2023-04-12T10:22:01.306Z,10.40
2023-04-12T10:23:34.247Z,10.40
2023-04-12T10:25:10.866Z,10.40
2023-04-12T10:26:44.576Z,10.40
2023-04-12T10:28:18.716Z,10.50
2023-04-12T10:29:51.661Z,10.50
2023-04-12T10:31:32.380Z,10.50
2023-04-12T10:33:16.775Z,10.60
2023-04-12T10:34:54.155Z,10.60
2023-04-12T10:36:55.944Z,10.60
2023-04-12T10:38:34.580Z,10.70
2023-04-12T10:40:19.147Z,10.70
2023-04-12T10:42:16.659Z,10.70
2023-04-12T10:43:50.490Z,10.80
2023-04-12T10:45:39.299Z,10.80
2023-04-12T10:47:12.349Z,10.90
2023-04-12T10:48:53.211Z,10.90
2023-04-12T10:50:27.424Z,10.90
2023-04-12T10:52:15.418Z,11.00
2023-04-12T10:53:48.199Z,11.00
2023-04-12T10:55:30.082Z,11.10
2023-04-12T10:57:03.935Z,11.10
2023-04-12T10:58:56.710Z,11.10
2023-04-12T11:01:13.377Z,11.10
2023-04-12T11:03:06.084Z,11.10
2023-04-12T11:04:39.227Z,11.20
2023-04-12T11:06:26.482Z,11.20
2023-04-12T11:08:01.869Z,11.20
2023-04-12T11:09:40.929Z,11.30
2023-04-12T11:11:22.428Z,11.20
2023-04-12T11:12:57.137Z,11.30
2023-04-12T11:14:35.443Z,11.30
2023-04-12T11:16:08.844Z,11.30
2023-04-12T11:17:43.120Z,11.30
2023-04-12T11:19:16.367Z,11.30
2023-04-12T11:20:49.548Z,11.30
2023-04-12T11:22:24.843Z,11.30
2023-04-12T11:23:58.379Z,11.30
2023-04-12T11:25:32.400Z,11.30
2023-04-12T11:27:04.694Z,11.40
2023-04-12T11:28:37.431Z,11.40
2023-04-12T11:30:11.149Z,11.40
2023-04-12T11:31:43.937Z,11.40
2023-04-12T11:33:33.525Z,11.50
2023-04-12T11:35:07.296Z,11.50
2023-04-12T11:36:40.064Z,11.60
2023-04-12T11:38:12.773Z,11.60
2023-04-12T11:39:46.526Z,11.70
2023-04-12T11:41:19.296Z,11.70
2023-04-12T11:42:52.781Z,11.70
2023-04-12T11:44:25.583Z,11.80
2023-04-12T11:45:59.761Z,11.80
2023-04-12T11:47:32.947Z,11.80
2023-04-12T11:49:07.474Z,11.90
2023-04-12T11:50:41.566Z,11.90
2023-04-12T11:52:15.271Z,11.90
2023-04-12T11:53:47.996Z,11.90
2023-04-12T11:55:20.703Z,12.00
2023-04-12T11:56:53.411Z,12.10
2023-04-12T11:58:28.571Z,12.10
2023-04-12T12:00:02.320Z,12.10
2023-04-12T12:01:36.235Z,12.20
2023-04-12T12:03:09.309Z,12.20
2023-04-12T12:04:46.562Z,12.20
2023-04-12T12:06:20.829Z,12.30
2023-04-12T12:07:54.520Z,12.30
2023-04-12T12:09:27.727Z,12.40
2023-04-12T12:11:07.700Z,12.40
2023-04-12T12:12:44.836Z,12.50
2023-04-12T12:14:20.333Z,12.50
2023-04-12T12:15:53.551Z,12.60
2023-04-12T12:17:28.732Z,12.60
2023-04-12T12:19:05.547Z,12.70
2023-04-12T12:20:43.493Z,12.70
2023-04-12T12:22:17.742Z,12.70
2023-04-12T12:23:50.739Z,12.70
2023-04-12T12:25:24.433Z,12.70
2023-04-12T12:26:58.866Z,12.80
2023-04-12T12:28:31.706Z,12.80
2023-04-12T12:30:05.609Z,12.80
2023-04-12T12:31:39.272Z,12.90
2023-04-12T12:33:14.016Z,12.90
2023-04-12T12:34:54.321Z,13.00
2023-04-12T12:36:33.304Z,13.00
2023-04-12T12:38:08.511Z,13.00
2023-04-12T12:40:00.322Z,13.00
2023-04-12T12:41:33.077Z,13.00
2023-04-12T12:43:07.403Z,12.90
2023-04-12T12:44:40.087Z,12.90
2023-04-12T12:46:12.994Z,13.00
2023-04-12T12:47:50.268Z,13.00
2023-04-12T12:49:23.074Z,13.00
2023-04-12T12:50:55.890Z,13.00
2023-04-12T12:52:29.914Z,13.00
2023-04-12T12:54:02.851Z,13.00
2023-04-12T12:55:35.617Z,13.00
2023-04-12T12:57:08.346Z,13.00
2023-04-12T12:58:41.871Z,13.00
2023-04-12T13:00:15.923Z,13.00
2023-04-12T13:01:48.698Z,12.90
2023-04-12T13:03:21.624Z,12.90
2023-04-12T13:04:54.603Z,12.90
2023-04-12T13:06:28.259Z,12.80
2023-04-12T13:08:02.726Z,12.80
2023-04-12T13:09:35.414Z,12.80
2023-04-12T13:11:08.635Z,12.80
2023-04-12T13:12:41.495Z,12.80
2023-04-12T13:14:14.185Z,12.80
2023-04-12T13:15:47.749Z,12.80
2023-04-12T13:17:21.086Z,12.80
2023-04-12T13:18:54.138Z,12.80
2023-04-12T13:20:27.680Z,12.90
2023-04-12T13:22:00.605Z,12.90
2023-04-12T13:23:34.889Z,12.80
2023-04-12T13:25:09.047Z,12.80
2023-04-12T13:26:43.177Z,12.90
2023-04-12T13:28:16.774Z,12.90
2023-04-12T13:29:49.579Z,12.90
2023-04-12T13:31:22.358Z,12.90
2023-04-12T13:32:55.884Z,12.80
2023-04-12T13:34:28.656Z,12.80
2023-04-12T13:36:01.359Z,12.80
2023-04-12T13:37:34.626Z,12.80
2023-04-12T13:39:08.752Z,12.90
2023-04-12T13:40:41.457Z,12.90
2023-04-12T13:42:14.171Z,12.90
2023-04-12T13:43:46.893Z,12.90
2023-04-12T13:45:19.602Z,12.90
2023-04-12T13:46:52.330Z,13.00
2023-04-12T13:48:25.020Z,13.00
2023-04-12T13:49:57.724Z,13.00
2023-04-12T13:51:32.540Z,13.00
2023-04-12T13:53:05.264Z,13.00
2023-04-12T13:54:39.796Z,13.10
2023-04-12T13:56:12.666Z,13.10
2023-04-12T13:57:45.399Z,13.10
2023-04-12T13:59:18.344Z,13.20
2023-04-12T14:00:51.076Z,13.10
2023-04-12T14:02:23.815Z,13.20
2023-04-12T14:03:56.963Z,13.20
2023-04-12T14:05:29.706Z,13.20
2023-04-12T14:07:02.613Z,13.30
2023-04-12T14:08:35.337Z,13.30
2023-04-12T14:10:10.971Z,13.30
2023-04-12T14:11:47.891Z,13.30
2023-04-12T14:13:20.634Z,13.20
2023-04-12T14:14:53.386Z,13.20
2023-04-12T14:16:26.090Z,13.20
2023-04-12T14:17:58.847Z,13.20
2023-04-12T14:19:31.584Z,13.30
2023-04-12T14:21:04.599Z,13.20
2023-04-12T14:22:37.309Z,13.20
2023-04-12T14:24:09.990Z,13.10
2023-04-12T14:25:44.164Z,13.10
2023-04-12T14:27:17.992Z,13.10
2023-04-12T14:28:51.582Z,13.10
2023-04-12T14:30:24.821Z,13.10
2023-04-12T14:31:57.511Z,13.00
2023-04-12T14:33:30.305Z,13.00
2023-04-12T14:35:04.162Z,13.00
2023-04-12T14:36:36.869Z,13.00
2023-04-12T14:38:09.894Z,12.90
2023-04-12T14:39:42.600Z,12.90
2023-04-12T14:41:16.972Z,12.90
2023-04-12T14:42:49.677Z,12.90
2023-04-12T14:44:24.615Z,12.90
2023-04-12T14:45:58.926Z,13.00
2023-04-12T14:47:31.890Z,13.00
2023-04-12T14:49:04.651Z,13.10
2023-04-12T14:50:37.348Z,13.10
2023-04-12T14:52:10.050Z,13.20
2023-04-12T14:53:43.376Z,13.20
2023-04-12T14:55:17.321Z,13.20
2023-04-12T14:56:54.450Z,13.30
2023-04-12T14:58:29.305Z,13.30
2023-04-12T15:00:02.205Z,13.30
2023-04-12T15:01:34.973Z,13.30
2023-04-12T15:03:08.445Z,13.30
2023-04-12T15:04:41.360Z,13.30
2023-04-12T15:06:14.337Z,13.30
2023-04-12T15:07:48.649Z,13.30
2023-04-12T15:09:22.053Z,13.30
2023-04-12T15:10:54.770Z,13.30
2023-04-12T15:12:28.931Z,13.30
2023-04-12T15:14:02.212Z,13.30
2023-04-12T15:15:34.914Z,13.30
2023-04-12T15:17:08.281Z,13.20
2023-04-12T15:18:41.715Z,13.30
2023-04-12T15:20:17.004Z,13.20
2023-04-12T15:21:50.927Z,13.10
2023-04-12T15:23:23.740Z,13.10
2023-04-12T15:24:57.664Z,13.10
2023-04-12T15:26:30.490Z,13.10
2023-04-12T15:28:04.871Z,13.20
2023-04-12T15:29:37.577Z,13.20
2023-04-12T15:31:11.800Z,13.20
2023-04-12T15:32:46.140Z,13.20
2023-04-12T15:34:19.442Z,13.20
2023-04-12T15:35:56.393Z,13.20
2023-04-12T15:37:29.347Z,13.30
2023-04-12T15:39:04.656Z,13.30
2023-04-12T15:40:37.369Z,13.30
2023-04-12T15:42:10.058Z,13.30
2023-04-12T15:43:49.127Z,13.30
2023-04-12T15:45:22.018Z,13.40
2023-04-12T15:47:07.858Z,13.40
2023-04-12T15:48:44.312Z,13.40
2023-04-12T15:50:17.172Z,13.40
2023-04-12T15:51:49.873Z,13.40
2023-04-12T15:53:24.413Z,13.50
2023-04-12T15:54:57.128Z,13.40
2023-04-12T15:56:31.359Z,13.40
2023-04-12T15:58:04.086Z,13.40
2023-04-12T15:59:38.648Z,13.40
2023-04-12T16:01:11.597Z,13.40
2023-04-12T16:02:53.376Z,13.40
2023-04-12T16:04:26.960Z,13.40
2023-04-12T16:05:59.824Z,13.40
2023-04-12T16:07:33.764Z,13.40
2023-04-12T16:09:06.700Z,13.40
2023-04-12T16:10:41.234Z,13.30
2023-04-12T16:12:13.929Z,13.30
2023-04-12T16:13:48.404Z,13.30
2023-04-12T16:15:22.494Z,13.30
2023-04-12T16:16:55.197Z,13.30
2023-04-12T16:18:30.793Z,13.30
2023-04-12T16:20:06.022Z,13.30
2023-04-12T16:21:43.957Z,13.30
2023-04-12T16:23:17.687Z,13.30
2023-04-12T16:24:50.384Z,13.30
2023-04-12T16:26:23.234Z,13.30
2023-04-12T16:27:57.047Z,13.30
2023-04-12T16:29:31.398Z,13.30
2023-04-12T16:31:06.155Z,13.30
2023-04-12T16:32:39.508Z,13.30
2023-04-12T16:34:12.363Z,13.30
2023-04-12T16:35:45.511Z,13.30
2023-04-12T16:37:18.562Z,13.30
2023-04-12T16:38:54.373Z,13.30
2023-04-12T16:40:28.013Z,13.30
2023-04-12T16:42:02.842Z,13.30
2023-04-12T16:43:36.238Z,13.30
2023-04-12T16:45:10.187Z,13.30
2023-04-12T16:46:44.747Z,13.30
2023-04-12T16:48:17.485Z,13.30
2023-04-12T16:49:50.214Z,13.30
2023-04-12T16:51:22.897Z,13.30
2023-04-12T16:52:55.909Z,13.30
2023-04-12T16:54:28.624Z,13.30
2023-04-12T16:56:02.632Z,13.30
2023-04-12T16:57:35.325Z,13.30
2023-04-12T16:59:09.630Z,13.20
2023-04-12T17:00:42.960Z,13.20
2023-04-12T17:02:17.368Z,13.20
2023-04-12T17:03:50.271Z,13.20
2023-04-12T17:05:24.748Z,13.10
2023-04-12T17:06:58.878Z,13.10
2023-04-12T17:08:31.601Z,13.20
2023-04-12T17:10:04.662Z,13.10
2023-04-12T17:11:37.554Z,13.10
2023-04-12T17:13:10.431Z,13.10
2023-04-12T17:14:43.167Z,13.10
2023-04-12T17:16:16.096Z,13.10
2023-04-12T17:17:51.525Z,13.10
2023-04-12T17:19:24.543Z,13.10
2023-04-12T17:20:57.603Z,13.10
2023-04-12T17:22:30.674Z,13.00
2023-04-12T17:24:03.462Z,13.00
2023-04-12T17:25:36.286Z,13.00
2023-04-12T17:27:09.097Z,13.00
2023-04-12T17:28:42.798Z,12.90
2023-04-12T17:30:17.573Z,12.90
2023-04-12T17:31:54.213Z,12.90
2023-04-12T17:33:29.308Z,12.80
2023-04-12T17:35:02.111Z,12.80
2023-04-12T17:36:34.934Z,12.80
2023-04-12T17:38:07.607Z,12.80
2023-04-12T17:39:40.413Z,12.70
2023-04-12T17:41:13.302Z,12.70
2023-04-12T17:42:46.040Z,12.70
2023-04-12T17:44:18.780Z,12.70
2023-04-12T17:45:51.535Z,12.60
2023-04-12T17:47:24.505Z,12.60
2023-04-12T17:48:59.904Z,12.60
2023-04-12T17:50:32.989Z,12.50
2023-04-12T17:52:07.196Z,12.50
2023-04-12T17:53:40.568Z,12.50
2023-04-12T17:55:13.313Z,12.40
2023-04-12T17:56:46.401Z,12.40
2023-04-12T17:58:19.091Z,12.40
2023-04-12T17:59:51.856Z,12.40
2023-04-12T18:01:24.655Z,12.30
2023-04-12T18:02:58.005Z,12.30
2023-04-12T18:04:32.489Z,12.20
2023-04-12T18:06:06.440Z,12.20
2023-04-12T18:07:40.078Z,12.10
2023-04-12T18:09:13.791Z,12.10
2023-04-12T18:10:46.548Z,12.10
2023-04-12T18:12:19.358Z,12.10
2023-04-12T18:13:52.336Z,12.00
2023-04-12T18:15:25.152Z,12.00
2023-04-12T18:16:58.191Z,12.00
2023-04-12T18:18:30.939Z,12.00
2023-04-12T18:20:09.428Z,12.00
2023-04-12T18:21:42.239Z,11.90
2023-04-12T18:23:15.167Z,11.90
2023-04-12T18:24:47.867Z,11.90
2023-04-12T18:26:20.562Z,11.90
2023-04-12T18:27:53.424Z,11.90
2023-04-12T18:29:26.260Z,11.80
2023-04-12T18:30:59.773Z,11.80
2023-04-12T18:32:32.571Z,11.80
2023-04-12T18:34:05.263Z,11.80
2023-04-12T18:35:40.649Z,11.80
2023-04-12T18:37:13.373Z,11.80
2023-04-12T18:38:46.541Z,11.80
2023-04-12T18:40:19.561Z,11.80
2023-04-12T18:41:52.334Z,11.80
2023-04-12T18:43:25.042Z,11.70
2023-04-12T18:44:58.209Z,11.70
2023-04-12T18:46:30.980Z,11.60
2023-04-12T18:48:04.018Z,11.50
2023-04-12T18:49:36.832Z,11.40
2023-04-12T18:51:10.851Z,11.40
2023-04-12T18:52:43.559Z,11.30
2023-04-12T18:54:17.435Z,11.20
2023-04-12T18:55:50.430Z,11.00
2023-04-12T18:57:23.183Z,10.80
2023-04-12T18:58:56.709Z,10.70
2023-04-12T19:00:29.611Z,10.70
2023-04-12T19:02:02.383Z,10.60
2023-04-12T19:03:35.241Z,10.50
2023-04-12T19:05:10.101Z,10.40
2023-04-12T19:06:45.447Z,10.40
2023-04-12T19:08:18.168Z,10.30
2023-04-12T19:09:51.048Z,10.30
2023-04-12T19:11:24.486Z,10.30
2023-04-12T19:12:57.260Z,10.30
2023-04-12T19:14:30.977Z,10.30
2023-04-12T19:16:07.249Z,10.20
2023-04-12T19:17:40.286Z,10.20
2023-04-12T19:19:13.009Z,10.20
2023-04-12T19:20:45.918Z,10.20
2023-04-12T19:22:19.967Z,10.20
2023-04-12T19:23:52.957Z,10.20
2023-04-12T19:25:30.723Z,10.20
2023-04-12T19:27:03.446Z,10.20
2023-04-12T19:28:36.348Z,10.20
2023-04-12T19:30:11.780Z,10.10
2023-04-12T19:31:45.822Z,10.10
2023-04-12T19:33:18.857Z,10.10
2023-04-12T19:34:52.053Z,10.10
2023-04-12T19:36:24.916Z,10.10
2023-04-12T19:37:59.322Z,10.10
2023-04-12T19:39:32.479Z,10.10
2023-04-12T19:41:05.438Z,10.10
2023-04-12T19:42:38.150Z,10.10
2023-04-12T19:44:11.083Z,10.00
2023-04-12T19:45:44.963Z,10.00
2023-04-12T19:47:17.726Z,9.90
2023-04-12T19:48:51.274Z,9.90
2023-04-12T19:50:24.857Z,9.90
2023-04-12T19:51:57.578Z,9.90
2023-04-12T19:53:33.119Z,9.90
2023-04-12T19:55:06.734Z,9.90
2023-04-12T19:56:39.422Z,9.90
2023-04-12T19:58:13.046Z,9.80
2023-04-12T19:59:45.732Z,9.70
2023-04-12T20:01:18.792Z,9.70
2023-04-12T20:02:53.282Z,9.70
2023-04-12T20:04:27.320Z,9.70
2023-04-12T20:06:03.721Z,9.70
2023-04-12T20:07:36.897Z,9.60
2023-04-12T20:09:13.272Z,9.70
2023-04-12T20:10:46.585Z,9.60
2023-04-12T20:12:19.508Z,9.60
2023-04-12T20:13:52.629Z,9.60
2023-04-12T20:15:25.435Z,9.50
2023-04-12T20:16:58.148Z,9.60
2023-04-12T20:18:30.954Z,9.50
2023-04-12T20:20:06.749Z,9.50
2023-04-12T20:21:40.248Z,9.50
2023-04-12T20:23:13.828Z,9.50
2023-04-12T20:24:49.398Z,9.40
2023-04-12T20:26:22.917Z,9.40
2023-04-12T20:27:55.625Z,9.40
2023-04-12T20:29:30.998Z,9.30
2023-04-12T20:31:04.414Z,9.30